Time;durP1;ratioP1;P1;durP2;ratioP2;P2;SDS_P1;SDS_P2;PMS_P1;PMS_P2;Temp;Humidity;BMP_temperature;BMP_pressure;BME280_temperature;BME280_humidity;BME280_pressure;Samples;Min_cycle;Max_cycle;Signal;HPM_P1;HPM_P2
2021/05/02 00:00:25;;;;;;;22.92;16.05;;;8.30;99.90;;;;;;5059360;28;20021;-72
2021/05/02 00:02:51;;;;;;;27.60;16.38;;;8.30;99.90;;;;;;5068661;28;20021;-72
2021/05/02 00:05:19;;;;;;;19.50;16.05;;;8.30;99.90;;;;;;5063137;28;20078;-72
2021/05/02 00:07:45;;;;;;;24.25;17.23;;;8.30;99.90;;;;;;5065275;28;20128;-73
2021/05/02 00:10:13;;;;;;;23.45;16.75;;;8.30;99.90;;;;;;5080073;28;20441;-73
2021/05/02 00:12:39;;;;;;;23.17;17.92;;;8.40;99.90;;;;;;5076066;28;20032;-72
2021/05/02 00:15:11;;;;;;;23.73;17.65;;;8.40;99.90;;;;;;5065604;28;20024;-72
2021/05/02 00:17:39;;;;;;;24.38;16.30;;;8.40;99.90;;;;;;5080339;28;20493;-73
2021/05/02 00:20:06;;;;;;;21.05;15.65;;;8.30;99.90;;;;;;5054414;28;20034;-72
2021/05/02 00:22:34;;;;;;;26.65;16.88;;;8.30;99.90;;;;;;5066071;28;20124;-72
2021/05/02 00:25:02;;;;;;;23.67;16.73;;;8.30;99.90;;;;;;5067552;28;20032;-72
2021/05/02 00:27:29;;;;;;;27.23;15.32;;;8.30;99.90;;;;;;5075782;28;20103;-73
2021/05/02 00:29:55;;;;;;;25.85;17.88;;;8.30;99.90;;;;;;5072744;28;20096;-73
2021/05/02 00:32:21;;;;;;;24.10;17.73;;;8.30;99.90;;;;;;5070349;28;20025;-73
2021/05/02 00:34:49;;;;;;;24.33;16.23;;;8.30;99.90;;;;;;5073912;28;20078;-72
2021/05/02 00:37:17;;;;;;;26.25;17.33;;;8.40;99.90;;;;;;5066497;28;20048;-72
2021/05/02 00:39:43;;;;;;;29.42;20.42;;;8.40;99.90;;;;;;5070155;28;20107;-72
2021/05/02 00:42:34;;;;;;;27.15;19.80;;;8.40;99.90;;;;;;5057618;28;20094;-72
2021/05/02 00:45:08;;;;;;;28.10;19.55;;;8.40;99.90;;;;;;5066225;28;20041;-73
2021/05/02 00:47:37;;;;;;;30.52;21.30;;;8.50;99.90;;;;;;5066056;28;20107;-73
2021/05/02 00:50:11;;;;;;;29.42;21.30;;;8.60;99.90;;;;;;5062557;28;20025;-72
2021/05/02 00:52:46;;;;;;;32.15;22.27;;;8.60;99.90;;;;;;5055071;28;20350;-72
2021/05/02 00:55:14;;;;;;;30.38;21.40;;;8.70;99.90;;;;;;5061941;28;20021;-72
2021/05/02 00:57:53;;;;;;;33.67;22.65;;;8.70;99.90;;;;;;5061214;28;20045;-72
2021/05/02 01:00:20;;;;;;;35.08;23.02;;;8.80;99.90;;;;;;5081798;28;20033;-72
2021/05/02 01:02:48;;;;;;;31.98;23.05;;;8.80;99.90;;;;;;5060519;28;20123;-72
2021/05/02 01:05:14;;;;;;;37.80;23.63;;;8.80;99.90;;;;;;5065003;28;20040;-73
2021/05/02 01:07:44;;;;;;;31.13;23.95;;;8.80;99.90;;;;;;5060605;28;20107;-73
2021/05/02 01:10:17;;;;;;;35.00;24.52;;;8.80;99.90;;;;;;5071263;28;20756;-72
2021/05/02 01:12:55;;;;;;;35.72;24.35;;;8.80;99.90;;;;;;5069366;28;20029;-72
2021/05/02 01:15:25;;;;;;;34.90;24.63;;;8.90;99.90;;;;;;5062502;28;20533;-72
2021/05/02 01:18:03;;;;;;;39.55;25.63;;;8.90;99.90;;;;;;5060649;28;20025;-72
2021/05/02 01:20:31;;;;;;;35.63;24.02;;;8.80;99.90;;;;;;5072810;28;20384;-72
2021/05/02 01:23:21;;;;;;;37.88;27.17;;;8.80;99.90;;;;;;5061061;28;20044;-72
2021/05/02 01:25:46;;;;;;;40.15;26.10;;;8.90;99.90;;;;;;5070639;28;20112;-72
2021/05/02 01:28:12;;;;;;;38.47;25.52;;;8.90;99.90;;;;;;5054642;28;20028;-72
2021/05/02 01:30:38;;;;;;;36.33;23.25;;;8.90;99.90;;;;;;5045354;28;20017;-73
2021/05/02 01:33:05;;;;;;;38.75;24.83;;;8.90;99.90;;;;;;5052258;28;20115;-72
2021/05/02 01:35:31;;;;;;;38.55;25.15;;;8.90;99.90;;;;;;5069576;28;20493;-72
2021/05/02 01:37:57;;;;;;;34.83;25.10;;;8.90;99.90;;;;;;5049405;28;20046;-73
2021/05/02 01:40:22;;;;;;;42.05;27.90;;;8.90;99.90;;;;;;5063390;28;20484;-73
2021/05/02 01:42:48;;;;;;;39.80;26.50;;;8.90;99.90;;;;;;5062678;28;20115;-73
2021/05/02 01:45:15;;;;;;;36.92;24.15;;;9.00;99.90;;;;;;5066830;28;20063;-73
2021/05/02 01:47:48;;;;;;;37.20;25.17;;;9.00;99.90;;;;;;5061395;28;20025;-72
2021/05/02 01:50:14;;;;;;;36.97;24.92;;;9.00;99.90;;;;;;5067116;28;20016;-73
2021/05/02 01:52:44;;;;;;;37.30;24.88;;;9.00;99.90;;;;;;5061872;28;20048;-73
2021/05/02 01:55:12;;;;;;;40.00;25.52;;;9.00;99.90;;;;;;5067028;28;20030;-73
2021/05/02 01:57:38;;;;;;;38.45;25.48;;;9.00;99.90;;;;;;5070716;28;20021;-72
2021/05/02 02:00:38;;;;;;;36.97;25.20;;;9.10;99.90;;;;;;5062152;28;20032;-72
2021/05/02 02:03:05;;;;;;;40.30;26.02;;;9.10;99.90;;;;;;5061693;28;20087;-73
2021/05/02 02:05:33;;;;;;;39.17;25.83;;;9.10;99.90;;;;;;5070653;28;20025;-72
2021/05/02 02:08:00;;;;;;;38.67;24.38;;;9.10;99.90;;;;;;5062485;28;20050;-72
2021/05/02 02:10:27;;;;;;;35.53;25.08;;;9.10;99.90;;;;;;5065277;28;20020;-72
2021/05/02 02:12:53;;;;;;;33.92;24.75;;;9.20;99.90;;;;;;5069182;28;20033;-72
2021/05/02 02:15:20;;;;;;;33.53;23.52;;;9.10;99.90;;;;;;5063833;28;20406;-73
2021/05/02 02:17:46;;;;;;;35.47;23.90;;;9.10;99.90;;;;;;5065557;28;20061;-72
2021/05/02 02:20:12;;;;;;;37.28;25.00;;;9.20;99.90;;;;;;5059425;28;20060;-72
2021/05/02 02:22:42;;;;;;;34.85;24.13;;;9.10;99.90;;;;;;5059173;28;20790;-72
2021/05/02 02:25:10;;;;;;;35.05;24.40;;;9.10;99.90;;;;;;5064140;28;20052;-72
2021/05/02 02:27:38;;;;;;;36.05;23.77;;;9.10;99.90;;;;;;5061537;28;20029;-72
2021/05/02 02:30:11;;;;;;;39.88;25.77;;;9.20;99.90;;;;;;5072247;28;20024;-72
2021/05/02 02:32:44;;;;;;;34.45;23.38;;;9.20;99.90;;;;;;5049102;28;20101;-72
2021/05/02 02:35:13;;;;;;;37.53;24.08;;;9.20;99.90;;;;;;5063141;28;20381;-72
2021/05/02 02:37:44;;;;;;;39.30;23.67;;;9.20;99.90;;;;;;5063330;28;20055;-72
2021/05/02 02:40:13;;;;;;;34.35;23.70;;;9.20;99.90;;;;;;5069265;28;20029;-72
2021/05/02 02:42:39;;;;;;;35.47;22.90;;;9.10;99.90;;;;;;5044012;28;20128;-72
2021/05/02 02:45:08;;;;;;;35.97;22.02;;;9.10;99.90;;;;;;5060530;28;20083;-73
2021/05/02 02:47:40;;;;;;;36.30;23.55;;;9.10;99.90;;;;;;5069709;28;20029;-72
2021/05/02 02:50:15;;;;;;;35.08;22.73;;;9.00;99.90;;;;;;5047213;28;20020;-73
2021/05/02 02:52:45;;;;;;;32.00;22.80;;;9.00;99.90;;;;;;5065628;28;20036;-72
2021/05/02 02:55:13;;;;;;;35.28;21.70;;;8.90;99.90;;;;;;5062036;28;20017;-73
2021/05/02 02:57:41;;;;;;;31.08;21.13;;;8.90;99.90;;;;;;5059367;28;20032;-73
2021/05/02 03:00:08;;;;;;;30.40;22.25;;;8.90;99.90;;;;;;5055775;28;20027;-72
2021/05/02 03:02:37;;;;;;;38.13;23.30;;;8.80;99.90;;;;;;5060439;28;20025;-72
2021/05/02 03:05:04;;;;;;;28.52;20.65;;;8.70;99.90;;;;;;5052377;28;20021;-72
2021/05/02 03:07:32;;;;;;;28.67;19.98;;;8.60;99.90;;;;;;5042240;28;20033;-72
2021/05/02 03:09:58;;;;;;;34.55;21.83;;;8.50;99.90;;;;;;5056680;28;20036;-72
2021/05/02 03:12:25;;;;;;;29.95;21.38;;;8.40;99.90;;;;;;5054982;28;20026;-72
2021/05/02 03:14:54;;;;;;;27.27;20.05;;;8.40;99.90;;;;;;5058733;28;20060;-73
2021/05/02 03:17:41;;;;;;;32.03;20.35;;;8.30;99.90;;;;;;5056681;28;20024;-72
2021/05/02 03:20:15;;;;;;;30.75;20.80;;;8.30;99.90;;;;;;5055712;28;20517;-72
2021/05/02 03:22:50;;;;;;;32.60;20.58;;;8.30;99.90;;;;;;5055010;28;20066;-72
2021/05/02 03:25:22;;;;;;;34.05;20.60;;;8.20;99.90;;;;;;5063168;28;20534;-72
2021/05/02 03:28:04;;;;;;;29.75;20.08;;;8.10;99.90;;;;;;5047362;28;20036;-72
2021/05/02 03:30:30;;;;;;;33.20;21.00;;;8.10;99.90;;;;;;5064938;28;20021;-72
2021/05/02 03:32:59;;;;;;;33.03;23.00;;;8.00;99.90;;;;;;5044674;28;20021;-72
2021/05/02 03:35:31;;;;;;;32.05;21.25;;;7.90;99.90;;;;;;5068450;28;20060;-72
2021/05/02 03:38:33;;;;;;;36.35;22.58;;;7.90;99.90;;;;;;5068835;28;20028;-72
2021/05/02 03:41:00;;;;;;;29.00;19.65;;;7.90;99.90;;;;;;5042262;28;20040;-72
2021/05/02 03:43:26;;;;;;;29.48;20.23;;;7.90;99.90;;;;;;5067062;28;20040;-72
2021/05/02 03:45:51;;;;;;;38.58;22.92;;;7.80;99.90;;;;;;5052370;28;20067;-72
2021/05/02 03:48:17;;;;;;;33.55;21.02;;;7.80;99.90;;;;;;5062789;28;20550;-72
2021/05/02 03:50:43;;;;;;;38.97;22.60;;;7.70;99.90;;;;;;5063737;28;20099;-72
2021/05/02 03:53:08;;;;;;;35.72;22.23;;;7.70;99.90;;;;;;5064334;28;20040;-72
2021/05/02 03:55:41;;;;;;;34.50;23.23;;;7.70;99.90;;;;;;5067763;28;20020;-72
2021/05/02 03:58:07;;;;;;;;;;;7.70;99.90;;;;;;5058452;28;20035;-72
2021/05/02 04:00:33;;;;;;;31.92;21.02;;;7.70;99.90;;;;;;5062507;28;20365;-72
2021/05/02 04:02:58;;;;;;;31.33;20.20;;;7.70;99.90;;;;;;5063953;28;20120;-72
2021/05/02 04:05:24;;;;;;;37.55;22.23;;;7.60;99.90;;;;;;5057715;28;20032;-72
2021/05/02 04:07:49;;;;;;;37.50;22.63;;;7.60;99.90;;;;;;5062517;28;20036;-72
2021/05/02 04:10:15;;;;;;;31.75;20.70;;;7.50;99.90;;;;;;5065108;28;20474;-72
2021/05/02 04:12:41;;;;;;;32.50;21.13;;;7.40;99.90;;;;;;5059644;28;20036;-72
2021/05/02 04:15:07;;;;;;;28.63;19.92;;;7.40;99.90;;;;;;5056497;28;20025;-72
2021/05/02 04:17:32;;;;;;;37.65;21.55;;;7.30;99.90;;;;;;5068997;28;20547;-72
2021/05/02 04:19:58;;;;;;;28.73;20.20;;;7.20;99.90;;;;;;5057739;28;20036;-72
2021/05/02 04:22:29;;;;;;;32.88;21.77;;;7.20;99.90;;;;;;5067366;28;20096;-72
2021/05/02 04:24:55;;;;;;;36.75;21.40;;;7.20;99.90;;;;;;5057332;28;20029;-72
2021/05/02 04:27:20;;;;;;;31.80;21.95;;;7.10;99.90;;;;;;5058500;28;20027;-72
2021/05/02 04:29:46;;;;;;;32.95;21.85;;;7.10;99.90;;;;;;5070109;28;20021;-72
2021/05/02 04:32:11;;;;;;;34.88;22.08;;;7.20;99.90;;;;;;5067103;28;20570;-72
2021/05/02 04:34:37;;;;;;;39.50;22.85;;;7.20;99.90;;;;;;5064621;28;20392;-72
2021/05/02 04:37:03;;;;;;;35.40;21.17;;;7.20;99.90;;;;;;5060696;28;20116;-72
2021/05/02 04:39:29;;;;;;;34.65;22.63;;;7.20;99.90;;;;;;5066120;28;20087;-72
2021/05/02 04:41:55;;;;;;;33.53;22.50;;;7.10;99.90;;;;;;5068249;28;20464;-72
2021/05/02 04:44:21;;;;;;;34.42;22.02;;;7.10;99.90;;;;;;5063505;28;20036;-72
2021/05/02 04:46:47;;;;;;;33.05;21.50;;;7.10;99.90;;;;;;5053217;28;20021;-72
2021/05/02 04:49:13;;;;;;;36.55;21.95;;;7.00;99.90;;;;;;5060940;28;20025;-72
2021/05/02 04:51:39;;;;;;;34.97;22.08;;;7.10;99.90;;;;;;5067043;28;20509;-72
2021/05/02 04:54:07;;;;;;;34.75;22.20;;;7.10;99.90;;;;;;5067587;28;20108;-72
2021/05/02 04:56:34;;;;;;;33.17;22.08;;;7.10;99.90;;;;;;5066117;28;20027;-72
2021/05/02 04:59:01;;;;;;;42.55;23.38;;;7.10;99.90;;;;;;5069302;28;20038;-72
2021/05/02 05:01:27;;;;;;;39.40;23.10;;;7.20;99.90;;;;;;5063587;28;20021;-72
2021/05/02 05:03:55;;;;;;;35.50;23.20;;;7.20;99.90;;;;;;5061132;28;20273;-72
2021/05/02 05:06:21;;;;;;;36.40;23.20;;;7.10;99.90;;;;;;5064642;28;20462;-73
2021/05/02 05:08:47;;;;;;;33.28;21.67;;;7.20;99.90;;;;;;5054077;28;20408;-72
2021/05/02 05:11:12;;;;;;;32.78;22.95;;;7.20;99.90;;;;;;5062806;28;20025;-72
2021/05/02 05:13:38;;;;;;;36.40;22.77;;;7.30;99.90;;;;;;5048862;28;20028;-72
2021/05/02 05:16:04;;;;;;;34.80;21.35;;;7.30;99.90;;;;;;5065960;28;20433;-73
2021/05/02 05:18:30;;;;;;;36.35;22.33;;;7.30;99.90;;;;;;5062805;28;20073;-72
2021/05/02 05:20:56;;;;;;;32.55;21.67;;;7.40;99.90;;;;;;5061516;28;20032;-72
2021/05/02 05:23:23;;;;;;;34.15;22.65;;;7.50;99.90;;;;;;5068049;28;20048;-72
2021/05/02 05:25:49;;;;;;;37.42;22.38;;;7.50;99.90;;;;;;5063796;28;20013;-72
2021/05/02 05:28:15;;;;;;;34.90;21.77;;;7.60;99.90;;;;;;5070384;28;20032;-72
2021/05/02 05:30:40;;;;;;;27.83;19.00;;;7.70;99.90;;;;;;5061788;28;20378;-72
2021/05/02 05:33:10;;;;;;;31.15;20.73;;;7.80;99.90;;;;;;5061374;28;20036;-73
2021/05/02 05:35:37;;;;;;;30.10;19.75;;;7.90;99.90;;;;;;5061681;28;20064;-72
2021/05/02 05:38:04;;;;;;;35.03;19.60;;;8.00;99.90;;;;;;5065110;28;20033;-72
2021/05/02 05:40:30;;;;;;;29.38;17.80;;;8.10;99.90;;;;;;5060927;28;20112;-72
2021/05/02 05:42:57;;;;;;;28.63;18.73;;;8.20;99.90;;;;;;5046535;28;20467;-72
2021/05/02 05:45:23;;;;;;;27.45;18.17;;;8.40;99.90;;;;;;5059832;28;20025;-73
2021/05/02 05:47:52;;;;;;;27.90;18.30;;;8.40;99.90;;;;;;5064198;28;20496;-72
2021/05/02 05:50:19;;;;;;;24.35;16.27;;;8.50;99.90;;;;;;5060036;28;20147;-72
2021/05/02 05:52:46;;;;;;;27.13;17.17;;;8.60;99.90;;;;;;5059447;28;20017;-72
2021/05/02 05:55:13;;;;;;;27.08;15.73;;;8.60;99.90;;;;;;5063684;28;20029;-73
2021/05/02 05:57:39;;;;;;;29.55;15.95;;;8.60;99.90;;;;;;5071038;28;20067;-73
2021/05/02 06:00:08;;;;;;;21.20;14.90;;;8.70;99.90;;;;;;5061637;28;20505;-73
2021/05/02 06:02:35;;;;;;;21.40;13.93;;;8.70;99.90;;;;;;5066083;28;20042;-72
2021/05/02 06:05:01;;;;;;;22.95;13.63;;;8.80;99.90;;;;;;5071684;28;20100;-73
2021/05/02 06:07:26;;;;;;;23.27;15.35;;;8.90;99.90;;;;;;5058394;28;20442;-72
2021/05/02 06:09:52;;;;;;;24.40;14.02;;;8.90;99.90;;;;;;5065574;28;20061;-72
2021/05/02 06:12:19;;;;;;;23.20;13.77;;;9.00;99.90;;;;;;5045697;28;20504;-73
2021/05/02 06:14:45;;;;;;;18.63;11.60;;;9.10;99.90;;;;;;5062531;28;20072;-72
2021/05/02 06:17:11;;;;;;;18.63;11.45;;;9.10;99.90;;;;;;5066104;28;20374;-72
2021/05/02 06:19:37;;;;;;;20.15;11.80;;;9.20;99.90;;;;;;5058575;28;20029;-73
2021/05/02 06:22:03;;;;;;;16.73;11.32;;;9.30;99.90;;;;;;5068380;28;20125;-73
2021/05/02 06:24:29;;;;;;;18.80;12.05;;;9.30;99.90;;;;;;5055464;28;20060;-72
2021/05/02 06:26:55;;;;;;;18.63;11.82;;;9.30;99.90;;;;;;5067781;28;20060;-73
2021/05/02 06:29:21;;;;;;;14.15;9.27;;;9.30;99.90;;;;;;5062111;28;20031;-73
2021/05/02 06:31:47;;;;;;;16.67;10.23;;;9.30;99.90;;;;;;5073760;28;20020;-73
2021/05/02 06:34:13;;;;;;;14.65;10.60;;;9.30;99.90;;;;;;5069684;28;20366;-72
2021/05/02 06:36:40;;;;;;;22.45;12.15;;;9.40;99.90;;;;;;5047067;28;20032;-72
2021/05/02 06:39:07;;;;;;;15.07;10.60;;;9.50;99.90;;;;;;5065817;28;20052;-73
2021/05/02 06:41:32;;;;;;;16.15;11.13;;;9.40;99.90;;;;;;5067027;28;20370;-72
2021/05/02 06:43:58;;;;;;;18.08;11.02;;;9.60;99.90;;;;;;5056198;28;20032;-73
2021/05/02 06:46:27;;;;;;;17.38;10.25;;;9.50;99.90;;;;;;5052604;28;20016;-73
2021/05/02 06:49:01;;;;;;;14.73;9.68;;;9.60;99.90;;;;;;5053519;28;20035;-72
2021/05/02 06:51:28;;;;;;;17.17;8.57;;;9.80;99.90;;;;;;5067215;28;20089;-73
2021/05/02 06:53:55;;;;;;;15.13;8.40;;;9.80;99.90;;;;;;5061667;28;20025;-72
2021/05/02 06:56:22;;;;;;;12.95;7.68;;;9.90;99.90;;;;;;5063401;28;20104;-73
2021/05/02 06:58:48;;;;;;;14.05;7.32;;;10.00;99.90;;;;;;5065776;28;20012;-73
2021/05/02 07:01:13;;;;;;;15.07;6.80;;;10.10;99.90;;;;;;5064203;28;20029;-73
2021/05/02 07:03:39;;;;;;;12.77;5.72;;;10.00;99.90;;;;;;5061178;28;20028;-73
2021/05/02 07:06:05;;;;;;;10.43;4.78;;;10.10;99.90;;;;;;5059305;28;20017;-72
2021/05/02 07:08:31;;;;;;;13.88;5.30;;;10.20;99.90;;;;;;5061371;28;20037;-72
2021/05/02 07:10:57;;;;;;;9.07;4.90;;;10.20;99.90;;;;;;5048731;28;20428;-72
2021/05/02 07:13:24;;;;;;;10.02;5.05;;;10.20;99.90;;;;;;5059148;28;20025;-72
2021/05/02 07:15:50;;;;;;;8.63;5.53;;;10.10;99.90;;;;;;5060448;28;20036;-73
2021/05/02 07:18:17;;;;;;;7.97;4.97;;;10.10;99.90;;;;;;5064881;28;20024;-73
2021/05/02 07:20:43;;;;;;;8.88;4.88;;;10.30;99.90;;;;;;5060209;28;20068;-73
2021/05/02 07:23:09;;;;;;;9.07;4.60;;;10.30;99.90;;;;;;5063862;28;20477;-73
2021/05/02 07:25:35;;;;;;;7.45;4.40;;;10.30;99.90;;;;;;5063724;28;20059;-73
2021/05/02 07:28:00;;;;;;;10.43;5.28;;;10.20;99.90;;;;;;5061145;28;20031;-73
2021/05/02 07:30:27;;;;;;;9.93;5.15;;;10.30;99.90;;;;;;5063069;28;20016;-72
2021/05/02 07:32:52;;;;;;;8.65;5.00;;;10.30;99.90;;;;;;5057979;28;20032;-73
2021/05/02 07:35:18;;;;;;;10.68;5.15;;;10.40;99.90;;;;;;5047442;28;20344;-73
2021/05/02 07:37:44;;;;;;;6.75;4.03;;;10.40;99.90;;;;;;5065787;28;20370;-73
2021/05/02 07:40:11;;;;;;;7.15;3.30;;;10.50;99.90;;;;;;5048504;28;20039;-71
2021/05/02 07:42:37;;;;;;;13.20;4.10;;;10.60;99.90;;;;;;5063341;28;20032;-72
2021/05/02 07:45:04;;;;;;;7.43;3.60;;;10.80;99.90;;;;;;5065326;28;20028;-72
2021/05/02 07:47:30;;;;;;;15.65;3.30;;;11.00;99.90;;;;;;5068251;28;20020;-73
2021/05/02 07:49:56;;;;;;;5.72;3.22;;;11.10;99.90;;;;;;5051192;28;20029;-72
2021/05/02 07:52:22;;;;;;;8.57;2.78;;;11.00;99.90;;;;;;5049548;28;20036;-72
2021/05/02 07:54:48;;;;;;;10.90;3.08;;;11.10;99.90;;;;;;5061776;28;20029;-72
2021/05/02 07:57:13;;;;;;;7.03;3.33;;;11.20;99.90;;;;;;5062826;28;20032;-72
2021/05/02 07:59:39;;;;;;;6.28;2.90;;;11.20;99.90;;;;;;5060952;28;20025;-71
2021/05/02 08:02:06;;;;;;;3.50;2.42;;;11.30;99.90;;;;;;5062558;28;20038;-72
2021/05/02 08:04:37;;;;;;;6.38;3.20;;;11.40;99.90;;;;;;5054250;28;20063;-72
2021/05/02 08:07:03;;;;;;;7.47;2.63;;;11.40;99.90;;;;;;5048278;28;20107;-71
2021/05/02 08:09:29;;;;;;;8.00;3.33;;;11.50;99.90;;;;;;5062671;28;20059;-72
2021/05/02 08:11:54;;;;;;;8.43;3.08;;;11.80;99.90;;;;;;5058400;28;20028;-72
2021/05/02 08:14:20;;;;;;;10.25;3.72;;;11.90;99.90;;;;;;5063181;28;20041;-72
2021/05/02 08:16:46;;;;;;;6.53;3.17;;;11.80;99.90;;;;;;5065350;28;20029;-72
2021/05/02 08:19:11;;;;;;;9.38;3.47;;;11.70;99.90;;;;;;5062553;28;20074;-72
2021/05/02 08:21:38;;;;;;;6.10;2.95;;;11.80;99.90;;;;;;5064935;28;20095;-72
2021/05/02 08:24:05;;;;;;;6.55;2.40;;;12.00;99.90;;;;;;5063508;28;20511;-72
2021/05/02 08:26:30;;;;;;;7.18;2.83;;;12.10;99.90;;;;;;5063230;28;20113;-72
2021/05/02 08:28:56;;;;;;;7.25;3.15;;;12.30;99.90;;;;;;5066020;28;20037;-72
2021/05/02 08:31:22;;;;;;;9.23;3.17;;;12.60;99.90;;;;;;5073069;28;20027;-72
2021/05/02 08:33:48;;;;;;;8.27;2.88;;;12.60;99.90;;;;;;5063319;28;20036;-72
2021/05/02 08:36:14;;;;;;;11.23;2.38;;;12.60;99.60;;;;;;5061624;28;20455;-72
2021/05/02 08:38:39;;;;;;;3.35;2.35;;;12.50;99.30;;;;;;5069249;28;20029;-72
2021/05/02 08:41:06;;;;;;;5.97;2.35;;;12.50;98.40;;;;;;5062313;28;20474;-72
2021/05/02 08:43:32;;;;;;;3.20;1.70;;;12.50;97.40;;;;;;5068732;28;20115;-72
2021/05/02 08:45:58;;;;;;;4.95;2.30;;;12.30;97.10;;;;;;5046285;28;20024;-72
2021/05/02 08:48:24;;;;;;;3.08;2.40;;;12.50;97.70;;;;;;5057257;28;20405;-72
2021/05/02 08:50:53;;;;;;;8.93;2.85;;;12.50;98.40;;;;;;5066752;28;20017;-72
2021/05/02 08:53:19;;;;;;;3.78;2.42;;;12.80;98.70;;;;;;5070566;28;20119;-72
2021/05/02 08:55:46;;;;;;;3.60;2.60;;;13.20;97.70;;;;;;5063364;28;20095;-72
2021/05/02 08:58:17;;;;;;;6.28;2.20;;;13.20;96.20;;;;;;5074168;28;20127;-72
2021/05/02 09:00:43;;;;;;;5.47;2.60;;;13.00;96.70;;;;;;5060410;28;20094;-72
2021/05/02 09:03:09;;;;;;;5.60;2.15;;;12.80;96.90;;;;;;5065497;28;20036;-72
2021/05/02 09:05:49;;;;;;;4.75;2.45;;;12.70;97.10;;;;;;5066239;28;20021;-72
2021/05/02 09:08:41;;;;;;;7.97;2.72;;;12.60;97.40;;;;;;5048371;28;20043;-72
2021/05/02 09:11:07;;;;;;;3.65;2.03;;;12.40;97.70;;;;;;5067182;28;20119;-72
2021/05/02 09:13:32;;;;;;;4.80;2.50;;;12.40;97.20;;;;;;5064288;28;20442;-72
2021/05/02 09:15:58;;;;;;;5.65;2.50;;;12.20;97.50;;;;;;5065773;28;20028;-72
2021/05/02 09:18:46;;;;;;;6.10;2.50;;;12.30;98.20;;;;;;5057125;28;20040;-72
2021/05/02 09:21:33;;;;;;;4.05;2.38;;;12.90;97.60;;;;;;5048422;28;20566;-72
2021/05/02 09:24:00;;;;;;;4.93;1.80;;;13.10;96.80;;;;;;5065359;28;20493;-72
2021/05/02 09:26:31;;;;;;;3.95;1.85;;;12.90;96.30;;;;;;5063980;28;20035;-72
2021/05/02 09:28:59;;;;;;;3.85;1.40;;;12.80;95.60;;;;;;5064991;28;20029;-72
2021/05/02 09:31:34;;;;;;;4.00;1.30;;;13.00;94.20;;;;;;5072987;28;20009;-72
2021/05/02 09:34:13;;;;;;;4.13;1.33;;;13.30;93.70;;;;;;5053084;28;20528;-72
2021/05/02 09:37:06;;;;;;;5.88;2.17;;;13.00;94.70;;;;;;5064716;28;20020;-72
2021/05/02 09:39:50;;;;;;;2.25;1.80;;;12.90;94.00;;;;;;5079261;28;20028;-72
2021/05/02 09:42:24;;;;;;;5.35;1.50;;;12.50;94.80;;;;;;5063841;28;20489;-74
2021/05/02 09:44:58;;;;;;;2.78;1.77;;;12.30;94.70;;;;;;5066286;28;20028;-73
2021/05/02 09:47:24;;;;;;;5.90;1.80;;;12.40;95.20;;;;;;5060600;28;20111;-74
2021/05/02 09:50:11;;;;;;;3.10;1.33;;;12.30;94.60;;;;;;5048711;28;20101;-74
2021/05/02 09:52:56;;;;;;;3.97;1.70;;;12.30;94.50;;;;;;5061233;28;20101;-73
2021/05/02 09:55:26;;;;;;;3.50;1.73;;;12.30;94.90;;;;;;5044736;28;20033;-72
2021/05/02 09:58:05;;;;;;;4.22;1.50;;;12.50;95.40;;;;;;5071976;28;20044;-73
2021/05/02 10:00:37;;;;;;;4.32;1.70;;;12.80;94.90;;;;;;5059521;28;20536;-73
2021/05/02 10:03:07;;;;;;;6.10;2.25;;;12.90;94.60;;;;;;5065457;28;20042;-73
2021/05/02 10:05:34;;;;;;;3.42;1.98;;;12.90;94.80;;;;;;5062279;28;20116;-73
2021/05/02 10:08:00;;;;;;;3.22;2.25;;;12.80;94.30;;;;;;5061424;28;20033;-72
2021/05/02 10:10:27;;;;;;;6.75;2.10;;;12.60;95.30;;;;;;5060521;28;20028;-74
2021/05/02 10:12:54;;;;;;;4.40;2.20;;;12.50;94.90;;;;;;5062171;28;20029;-73
2021/05/02 10:15:21;;;;;;;4.63;1.77;;;12.30;95.20;;;;;;5064365;28;20077;-73
2021/05/02 10:17:53;;;;;;;6.47;2.22;;;12.30;95.80;;;;;;5063736;28;20013;-73
2021/05/02 10:20:21;;;;;;;5.47;2.33;;;12.20;96.00;;;;;;5060611;28;20020;-74
2021/05/02 10:22:48;;;;;;;3.78;2.30;;;12.00;96.00;;;;;;5063367;28;20083;-74
2021/05/02 10:25:15;;;;;;;5.78;2.10;;;12.00;96.10;;;;;;5063510;28;20021;-73
2021/05/02 10:27:49;;;;;;;4.00;2.22;;;12.00;96.70;;;;;;5065605;28;20081;-74
2021/05/02 10:30:39;;;;;;;5.78;2.47;;;12.00;97.40;;;;;;5063579;28;20031;-73
2021/05/02 10:33:10;;;;;;;5.15;2.20;;;12.00;96.80;;;;;;5046018;28;20039;-73
2021/05/02 10:35:43;;;;;;;6.70;2.28;;;12.20;97.10;;;;;;5062911;28;20036;-73
2021/05/02 10:38:10;;;;;;;5.93;2.95;;;12.20;97.50;;;;;;5047093;28;20075;-74
2021/05/02 10:40:37;;;;;;;7.45;2.55;;;12.10;97.80;;;;;;5058346;28;20036;-72
2021/05/02 10:43:07;;;;;;;5.65;2.55;;;12.30;97.10;;;;;;5062114;28;20040;-72
2021/05/02 10:45:45;;;;;;;4.40;2.40;;;12.70;98.60;;;;;;5069673;28;20027;-73
2021/05/02 10:48:14;;;;;;;3.28;2.20;;;13.20;96.90;;;;;;5060942;28;20025;-73
2021/05/02 10:50:44;;;;;;;6.53;2.60;;;13.50;95.20;;;;;;5063233;28;20485;-74
2021/05/02 10:53:14;;;;;;;4.75;2.30;;;13.30;93.50;;;;;;5060164;28;20579;-73
2021/05/02 10:55:52;;;;;;;2.92;2.40;;;13.20;93.90;;;;;;5067519;28;20020;-73
2021/05/02 10:58:18;;;;;;;6.20;3.08;;;13.00;94.40;;;;;;5060508;28;20664;-73
2021/05/02 11:00:49;;;;;;;3.75;2.80;;;12.90;95.40;;;;;;5059017;28;20404;-73
2021/05/02 11:03:40;;;;;;;9.48;3.28;;;12.80;94.90;;;;;;5062200;28;20444;-73
2021/05/02 11:06:06;;;;;;;6.35;2.88;;;12.80;95.20;;;;;;5065750;28;20112;-73
2021/05/02 11:08:48;;;;;;;6.72;3.30;;;12.90;95.10;;;;;;5058611;28;20037;-73
2021/05/02 11:12:02;;;;;;;6.97;2.75;;;12.80;94.50;;;;;;5052637;28;20035;-73
2021/05/02 11:14:21;;;;;;;7.03;2.75;;;12.70;95.20;;;;;;5053756;28;20047;-73
2021/05/02 11:16:56;;;;;;;3.08;2.70;;;12.70;93.90;;;;;;5051424;28;20025;-73
2021/05/02 11:19:23;;;;;;;4.47;2.65;;;12.80;93.50;;;;;;5060957;28;20064;-73
2021/05/02 11:21:49;;;;;;;3.70;2.35;;;12.80;93.00;;;;;;5045317;28;20032;-74
2021/05/02 11:24:18;;;;;;;4.13;2.33;;;13.00;93.00;;;;;;5060218;28;20481;-75
2021/05/02 11:32:34;;;;;;;3.30;2.03;;;13.00;92.10;;;;;;5047241;28;20035;-75
2021/05/02 11:35:09;;;;;;;4.43;2.50;;;13.20;92.50;;;;;;5068506;28;20067;-75
2021/05/02 11:37:53;;;;;;;3.92;1.70;;;13.10;92.10;;;;;;5042843;28;20491;-73
2021/05/02 11:40:28;;;;;;;4.07;1.92;;;13.20;91.30;;;;;;5064047;28;20059;-73
2021/05/02 11:43:04;;;;;;;5.38;2.30;;;13.20;90.50;;;;;;5060901;28;20049;-75
2021/05/02 11:45:40;;;;;;;4.95;2.28;;;13.30;90.10;;;;;;5042224;28;20427;-72
2021/05/02 11:48:07;;;;;;;2.25;1.73;;;13.40;90.30;;;;;;5065241;28;20078;-73
2021/05/02 11:50:40;;;;;;;6.70;1.92;;;13.40;88.90;;;;;;5060288;28;20024;-73
2021/05/02 11:53:06;;;;;;;6.22;2.00;;;13.60;90.90;;;;;;5060469;28;20381;-72
2021/05/02 11:55:36;;;;;;;3.30;2.25;;;13.60;90.70;;;;;;5062037;28;20815;-76
2021/05/02 11:58:08;;;;;;;6.93;2.42;;;13.60;90.10;;;;;;5060920;28;20107;-75
2021/05/02 12:00:41;;;;;;;4.95;1.70;;;13.50;90.10;;;;;;5060041;28;20078;-75
2021/05/02 12:03:11;;;;;;;7.47;2.28;;;13.50;89.20;;;;;;5060677;28;20055;-75
2021/05/02 12:05:47;;;;;;;2.80;1.90;;;13.60;90.40;;;;;;5058199;28;20025;-74
2021/05/02 12:08:15;;;;;;;3.30;2.05;;;13.70;88.50;;;;;;5060248;28;20094;-75
2021/05/02 12:10:41;;;;;;;3.05;2.25;;;13.80;87.40;;;;;;5067956;28;20066;-74
2021/05/02 12:13:07;;;;;;;2.65;1.83;;;13.80;87.20;;;;;;5061709;28;20032;-75
2021/05/02 12:15:33;;;;;;;2.42;2.00;;;13.80;88.20;;;;;;5065895;28;20027;-74
2021/05/02 12:18:00;;;;;;;3.65;2.20;;;13.70;87.70;;;;;;5065843;28;20045;-74
2021/05/02 12:20:28;;;;;;;4.95;2.20;;;13.70;86.40;;;;;;5044077;28;20029;-75
2021/05/02 12:22:54;;;;;;;4.07;2.30;;;13.60;89.00;;;;;;5046827;28;20033;-72
2021/05/02 12:25:20;;;;;;;4.22;2.13;;;13.60;88.80;;;;;;5056965;28;20020;-73
2021/05/02 12:27:59;;;;;;;2.50;1.90;;;13.40;87.50;;;;;;5064450;28;20029;-73
2021/05/02 12:30:26;;;;;;;5.57;2.20;;;13.40;88.40;;;;;;5065456;28;20020;-73
2021/05/02 12:32:54;;;;;;;3.58;2.08;;;13.50;88.80;;;;;;5064407;28;20033;-74
2021/05/02 12:35:22;;;;;;;5.35;2.65;;;13.80;90.10;;;;;;5052787;28;20079;-73
2021/05/02 12:37:48;;;;;;;2.90;2.22;;;13.90;89.40;;;;;;5061686;28;20025;-73
2021/05/02 12:40:14;;;;;;;3.08;1.70;;;14.00;87.70;;;;;;5065613;28;20039;-72
2021/05/02 12:42:41;;;;;;;2.78;1.98;;;14.20;86.00;;;;;;5060875;28;20032;-73
2021/05/02 12:45:09;;;;;;;4.75;2.05;;;14.20;85.20;;;;;;5046649;28;20087;-72
2021/05/02 12:47:44;;;;;;;3.45;1.40;;;14.00;85.30;;;;;;5049748;28;20024;-73
2021/05/02 12:50:11;;;;;;;3.03;1.70;;;14.10;87.50;;;;;;5064322;28;20491;-73
2021/05/02 12:52:40;;;;;;;3.83;2.03;;;13.90;87.50;;;;;;5060615;28;20039;-73
2021/05/02 12:55:25;;;;;;;3.45;1.70;;;13.80;86.10;;;;;;5060720;28;20079;-72